DW0805 Ramloese DK current weather conditions

sailwx.info

Wind from 182 at 6 knots gusting 10

Air temperature 16.1° C
Dewpoint 15.5° C

Last reported at 2016-Jul-01 01:35 UTC.
Time now 2016-Jul-01 02:48 UTC

Location: N 56°01' E 012°05'.
View on Google Maps.

See reports from other nearby stations

  
Tides and Currents Weather Stations Pressure Air Temp Water Temp Dewpoint Dewpoint Depression Visibility Wind Speed Wind Dir Waves Ship Positions
date/time (UTC)wind fromknots sea level pressurealtimeterstation pressurevisibilityair tempwater tempwave heightnotes
2016-Jul-01 01:35 182 6 gusting 10 16.1
2016-Jul-01 01:25 180 4 gusting 8 16.1
2016-Jul-01 01:15 165 4 gusting 7 16.1
2016-Jul-01 00:55 166 4 gusting 10 15.6
2016-Jul-01 00:45 160 2 gusting 6 15.6
2016-Jul-01 00:35 150 1 gusting 6 16.1
2016-Jul-01 00:25 135 2 gusting 8 16.1
2016-Jul-01 00:15 144 3 gusting 6 16.1
2016-Jul-01 00:05 156 1 gusting 6 16.1
2016-Jun-30 23:55 165 1 gusting 7 16.1
2016-Jun-30 23:45 176 1 gusting 6 16.1
2016-Jun-30 23:35 178 0 gusting 6 16.1
2016-Jun-30 23:25 183 2 gusting 6 16.1
2016-Jun-30 23:05 190 2 gusting 6 16.1
2016-Jun-30 22:55 195 2 gusting 7 16.1
2016-Jun-30 22:45 209 1 gusting 5 16.1
2016-Jun-30 22:35 210 0 gusting 4 16.1
2016-Jun-30 22:25 212 2 gusting 6 16.1
2016-Jun-30 22:05 183 2 gusting 6 16.1
2016-Jun-30 21:45 181 3 gusting 6 16.1
2016-Jun-30 21:35 195 1 gusting 5 16.1
2016-Jun-30 21:25 212 1 gusting 6 16.1
2016-Jun-30 21:15 213 4 gusting 6 16.1
2016-Jun-30 21:05 215 4 gusting 7 16.1
2016-Jun-30 20:55 216 4 gusting 8 16.1
2016-Jun-30 20:45 221 6 gusting 10 16.1
2016-Jun-30 20:25 226 4 gusting 10 16.1
2016-Jun-30 20:15 214 7 gusting 10 16.1
2016-Jun-30 19:55 229 7 gusting 11 16.7
2016-Jun-30 19:45 231 7 gusting 12 16.7
2016-Jun-30 19:35 230 6 gusting 11 16.7
2016-Jun-30 19:15 188 1 gusting 5 16.1
2016-Jun-30 19:05 186 1 gusting 5 16.1
2016-Jun-30 18:55 297 1 gusting 5 16.7
2016-Jun-30 18:45 259 1 gusting 6 16.1
2016-Jun-30 18:35 297 4 gusting 7 16.7
2016-Jun-30 18:15 227 2 gusting 10 16.7
2016-Jun-30 18:05 274 6 gusting 10 17.2
2016-Jun-30 17:55 220 6 gusting 10 17.2
2016-Jun-30 17:45 228 5 gusting 11 17.2
2016-Jun-30 17:25 224 5 gusting 10 17.2
2016-Jun-30 17:15 227 6 gusting 10 16.7
2016-Jun-30 17:05 227 6 gusting 10 16.1
2016-Jun-30 16:55 288 5 gusting 10 16.1
2016-Jun-30 16:45 255 5 gusting 11 16.1
2016-Jun-30 16:25 297 2 gusting 8 16.1
2016-Jun-30 16:15 290 5 gusting 10 16.1
2016-Jun-30 16:05 303 6 gusting 10 16.7
2016-Jun-30 15:55 335 5 gusting 12 17.8
2016-Jun-30 15:45 223 6 gusting 11 18.3
2016-Jun-30 15:35 217 7 gusting 10 18.3
2016-Jun-30 15:25 230 4 gusting 11 18.3
2016-Jun-30 15:15 214 3 gusting 10 18.3
2016-Jun-30 15:05 223 6 gusting 10 18.9
2016-Jun-30 14:55 219 6 gusting 10 18.3
2016-Jun-30 14:35 230 6 gusting 13 18.9
2016-Jun-30 14:15 240 5 gusting 11 18.9
2016-Jun-30 14:05 297 6 gusting 11 18.9
2016-Jun-30 13:55 284 4 gusting 10 17.2
2016-Jun-30 13:45 335 6 gusting 10 17.2
2016-Jun-30 13:35 286 6 gusting 10 16.7
2016-Jun-30 13:25 271 7 gusting 11 16.7
2016-Jun-30 13:15 221 6 gusting 11 17.2
2016-Jun-30 12:55 237 6 gusting 13 16.7
2016-Jun-30 12:45 215 7 gusting 13 16.7
2016-Jun-30 12:35 272 10 gusting 13 16.7
2016-Jun-30 12:25 295 8 gusting 13 17.2
2016-Jun-30 12:15 211 9 gusting 13 17.2
2016-Jun-30 12:05 241 9 gusting 13 17.8
2016-Jun-30 11:55 278 8 gusting 13 17.8
2016-Jun-30 11:35 214 10 gusting 14 18.3
2016-Jun-30 11:25 217 8 gusting 13 18.9
2016-Jun-30 11:15 215 7 gusting 13 18.9
2016-Jun-30 11:05 213 8 gusting 14 19.4
2016-Jun-30 10:55 211 8 gusting 15 19.4
2016-Jun-30 10:45 209 6 gusting 14 19.4
2016-Jun-30 10:25 219 11 gusting 17 19.4
2016-Jun-30 10:15 211 12 gusting 17 20.0
2016-Jun-30 09:45 195 6 gusting 12 20.0
2016-Jun-30 09:35 184 6 gusting 11 19.4
2016-Jun-30 09:25 193 2 gusting 10 19.4
2016-Jun-30 09:15 208 5 gusting 10 18.9
2016-Jun-30 08:55 206 5 gusting 11 17.2
2016-Jun-30 08:45 210 6 gusting 12 16.7
2016-Jun-30 08:25 208 11 gusting 17 16.7
2016-Jun-30 08:15 231 12 gusting 17 16.7
2016-Jun-30 08:05 213 8 gusting 13 16.7
2016-Jun-30 07:55 211 10 gusting 17 16.7
2016-Jun-30 07:35 252 11 gusting 17 16.7
2016-Jun-30 07:25 242 13 gusting 18 16.1
2016-Jun-30 07:15 215 12 gusting 19 16.7
2016-Jun-30 07:05 282 11 gusting 17 16.7
2016-Jun-30 06:55 222 12 gusting 17 16.7
2016-Jun-30 06:45 223 6 gusting 15 16.7
2016-Jun-30 06:35 214 6 gusting 10 16.7
2016-Jun-30 06:25 210 6 gusting 13 16.7
2016-Jun-30 05:55 255 4 gusting 10 15.6
2016-Jun-30 05:45 235 4 gusting 12 15.6
2016-Jun-30 05:25 189 4 gusting 10 15.0
2016-Jun-30 05:15 290 4 gusting 12 15.0
2016-Jun-30 05:05 214 5 gusting 17 14.4
2016-Jun-30 04:55 302 11 gusting 17 15.0
2016-Jun-30 04:45 189 5 gusting 12 15.0
2016-Jun-30 04:25 183 6 gusting 11 15.6
2016-Jun-30 04:15 196 5 gusting 11 15.6
2016-Jun-30 03:55 185 5 gusting 10 15.6
2016-Jun-30 03:45 178 4 gusting 10 15.6
2016-Jun-30 03:25 189 6 gusting 12 15.6
2016-Jun-30 03:15 188 5 gusting 10 15.6
2016-Jun-30 03:05 177 3 gusting 10 15.6
2016-Jun-30 02:35 213 6 gusting 10 15.6
2016-Jun-30 02:15 215 7 gusting 10 15.6
2016-Jun-30 02:05 216 6 gusting 10 15.6
2016-Jun-30 01:45 210 7 gusting 11 16.1
2016-Jun-30 01:35 216 8 gusting 12 15.6
2016-Jun-30 01:25 213 7 gusting 12 16.1
2016-Jun-30 01:15 207 8 gusting 12 16.1
2016-Jun-30 00:55 218 6 gusting 10 15.6
2016-Jun-30 00:25 245 6 gusting 11 15.6
2016-Jun-29 23:55 248 4 gusting 8 15.0
2016-Jun-29 23:45 241 6 gusting 8 15.0
2016-Jun-29 23:35 247 4 gusting 7 15.0
2016-Jun-29 23:15 258 4 gusting 8 15.0
2016-Jun-29 23:05 247 5 gusting 10 15.0
2016-Jun-29 22:55 247 5 gusting 8 15.0
2016-Jun-29 22:25 247 5 gusting 8 15.6
2016-Jun-29 22:15 251 5 gusting 10 15.6
2016-Jun-29 22:05 256 4 gusting 6 15.6
2016-Jun-29 21:45 263 2 gusting 6 15.6
2016-Jun-29 21:35 262 2 gusting 7 16.1
2016-Jun-29 21:25 267 4 gusting 7 16.1
2016-Jun-29 21:15 264 3 gusting 7 16.7
2016-Jun-29 20:55 223 8 gusting 13 17.8
2016-Jun-29 20:25 218 2 gusting 5 17.2
2016-Jun-29 20:15 217 1 gusting 4 17.2
2016-Jun-29 20:05 217 3 gusting 7 17.2
2016-Jun-29 19:55 214 5 gusting 7 17.2
2016-Jun-29 19:45 217 1 gusting 5 17.2
2016-Jun-29 19:35 217 4 gusting 7 17.8
2016-Jun-29 19:15 236 2 gusting 6 17.8
2016-Jun-29 19:05 250 1 gusting 2 18.3
2016-Jun-29 18:55 251 1 gusting 5 18.9
2016-Jun-29 18:45 251 1 gusting 2 19.4
2016-Jun-29 18:25 251 0 gusting 5 19.4
2016-Jun-29 18:15 252 1 gusting 7 20.0
2016-Jun-29 18:05 253 2 gusting 6 20.0
2016-Jun-29 17:35 265 5 gusting 7 20.6
2016-Jun-29 17:15 247 3 gusting 6 20.6
2016-Jun-29 16:55 256 3 gusting 10 20.6
2016-Jun-29 16:05 311 4 gusting 6 21.1
2016-Jun-29 15:55 268 4 gusting 8 21.1
2016-Jun-29 15:05 278 5 gusting 10 20.6
2016-Jun-29 14:55 273 4 gusting 10 20.6
2016-Jun-29 14:35 283 5 gusting 10 20.0
2016-Jun-29 14:15 219 3 gusting 10 19.4
2016-Jun-29 13:45 284 2 gusting 6 17.8
2016-Jun-29 13:35 180 3 gusting 6 17.8
2016-Jun-29 13:25 180 2 gusting 6 17.8
2016-Jun-29 13:05 186 2 gusting 6 17.8
2016-Jun-29 12:45 179 6 gusting 8 17.2
2016-Jun-29 12:15 159 4 gusting 10 16.7
2016-Jun-29 12:05 165 4 gusting 8 16.1
2016-Jun-29 11:55 149 2 gusting 10 15.0
2016-Jun-29 11:45 335 4 gusting 10 15.0
2016-Jun-29 11:35 133 3 gusting 7 15.0
2016-Jun-29 11:25 202 2 gusting 8 15.0
2016-Jun-29 11:15 233 2 gusting 8 15.0
2016-Jun-29 10:55 200 5 gusting 12 15.0
2016-Jun-29 10:45 335 3 gusting 10 15.0
2016-Jun-29 10:35 168 7 gusting 13 15.6
2016-Jun-29 10:15 287 6 gusting 13 15.6
2016-Jun-29 10:05 335 6 gusting 13 16.1
2016-Jun-29 09:55 285 6 gusting 11 15.6
2016-Jun-29 09:35 122 6 gusting 11 15.6
2016-Jun-29 09:25 115 6 gusting 13 15.6
2016-Jun-29 09:15 050 7 gusting 13 15.6
2016-Jun-29 08:55 126 7 gusting 13 16.1
2016-Jun-29 08:45 121 5 gusting 13 16.1
2016-Jun-29 08:35 133 7 gusting 13 16.7
2016-Jun-29 08:05 138 8 gusting 18 16.7
2016-Jun-29 07:45 136 8 gusting 13 17.2
2016-Jun-29 07:35 129 8 gusting 13 17.2
2016-Jun-29 07:25 115 6 gusting 13 16.7
2016-Jun-29 07:15 132 8 gusting 13 16.7
2016-Jun-29 06:55 117 6 gusting 12 16.1
2016-Jun-29 06:35 128 6 gusting 11 16.1
2016-Jun-29 06:25 124 7 gusting 13 16.1
2016-Jun-29 06:15 127 6 gusting 13 16.1
2016-Jun-29 06:05 134 5 gusting 10 16.1
2016-Jun-29 05:55 134 6 gusting 10 15.6
2016-Jun-29 05:45 125 5 gusting 8 15.6
2016-Jun-29 05:35 131 4 gusting 8 15.6
2016-Jun-29 05:25 118 4 gusting 7 15.0
2016-Jun-29 05:15 120 4 gusting 7 15.0
2016-Jun-29 04:55 120 4 gusting 6 14.4
2016-Jun-29 04:45 120 3 gusting 6 13.9
2016-Jun-29 04:35 119 4 gusting 5 13.9
2016-Jun-29 04:15 120 3 gusting 6 13.3
2016-Jun-29 04:05 125 0 gusting 5 13.3
2016-Jun-29 03:55 117 1 gusting 4 12.8
2016-Jun-29 03:35 114 12.2
2016-Jun-29 03:25 114 0 gusting 2 12.2
2016-Jun-29 03:15 115 1 gusting 2 12.2
2016-Jun-29 03:05 115 0 gusting 1 12.2
2016-Jun-29 02:45 114 1 gusting 2 12.2
2016-Jun-29 02:15 114 2 gusting 4 11.7
2016-Jun-29 02:05 117 2 gusting 4 11.7